createdAt,value
2023-05-24T00:00:20.474Z,1014.96
2023-05-24T00:01:20.451Z,1014.98
2023-05-24T00:02:20.445Z,1014.91
2023-05-24T00:03:20.492Z,1014.99
2023-05-24T00:04:20.557Z,1015.00
2023-05-24T00:05:20.422Z,1014.99
2023-05-24T00:06:20.397Z,1015.00
2023-05-24T00:07:20.425Z,1015.03
2023-05-24T00:08:20.367Z,1015.06
2023-05-24T00:09:20.367Z,1015.03
2023-05-24T00:10:20.387Z,1015.06
2023-05-24T00:11:20.342Z,1015.08
2023-05-24T00:12:20.337Z,1015.10
2023-05-24T00:13:20.322Z,1015.09
2023-05-24T00:14:20.309Z,1015.13
2023-05-24T00:15:20.294Z,1015.13
2023-05-24T00:16:20.325Z,1015.12
2023-05-24T00:17:20.291Z,1015.14
2023-05-24T00:18:20.257Z,1015.16
2023-05-24T00:19:20.241Z,1015.16
2023-05-24T00:20:20.294Z,1015.18
2023-05-24T00:21:20.221Z,1015.18
2023-05-24T00:22:20.239Z,1015.18
2023-05-24T00:23:20.245Z,1015.19
2023-05-24T00:24:20.207Z,1015.16
2023-05-24T00:25:20.180Z,1015.13
2023-05-24T00:26:20.174Z,1015.14
2023-05-24T00:27:20.154Z,1015.24
2023-05-24T00:28:20.148Z,1015.26
2023-05-24T00:29:20.144Z,1015.19
2023-05-24T00:30:20.217Z,1015.24
2023-05-24T00:31:20.158Z,1015.22
2023-05-24T00:32:20.152Z,1015.19
2023-05-24T00:33:20.094Z,1015.24
2023-05-24T00:34:20.098Z,1015.25
2023-05-24T00:35:20.073Z,1015.25
2023-05-24T00:36:20.068Z,1015.24
2023-05-24T00:37:20.070Z,1015.24
2023-05-24T00:38:20.046Z,1015.25
2023-05-24T00:39:20.171Z,1015.25
2023-05-24T00:40:20.028Z,1015.24
2023-05-24T00:41:20.021Z,1015.30
2023-05-24T00:42:20.014Z,1015.29
2023-05-24T00:43:19.984Z,1015.24
2023-05-24T00:44:19.976Z,1015.30
2023-05-24T00:45:19.998Z,1015.24
2023-05-24T00:46:20.017Z,1015.27
2023-05-24T00:47:19.956Z,1015.27
2023-05-24T00:48:19.959Z,1015.26
2023-05-24T00:49:19.935Z,1015.21
2023-05-24T00:50:19.911Z,1015.25
2023-05-24T00:51:19.914Z,1015.21
2023-05-24T00:52:19.899Z,1015.23
2023-05-24T00:53:19.874Z,1015.19
2023-05-24T00:54:19.893Z,1015.19
2023-05-24T00:55:19.897Z,1015.20
2023-05-24T00:56:19.858Z,1015.21
2023-05-24T00:57:19.831Z,1015.19
2023-05-24T00:58:19.841Z,1015.15
2023-05-24T00:59:19.819Z,1015.15
2023-05-24T01:00:19.830Z,1015.16
2023-05-24T01:01:19.870Z,1015.19
2023-05-24T01:02:19.820Z,1015.16
2023-05-24T01:03:19.880Z,1015.13
2023-05-24T01:04:19.782Z,1015.13
2023-05-24T01:05:19.751Z,1015.10
2023-05-24T01:06:19.738Z,1015.16
2023-05-24T01:07:19.734Z,1015.14
2023-05-24T01:08:19.731Z,1015.14
2023-05-24T01:09:19.729Z,1015.13
2023-05-24T01:10:19.710Z,1015.12
2023-05-24T01:11:19.727Z,1015.17
2023-05-24T01:12:19.706Z,1015.14
2023-05-24T01:13:19.672Z,1015.15
2023-05-24T01:14:19.648Z,1015.18
2023-05-24T01:15:19.648Z,1015.13
2023-05-24T01:16:19.678Z,1015.12
2023-05-24T01:17:19.617Z,1015.14
2023-05-24T01:18:19.631Z,1015.12
2023-05-24T01:19:19.622Z,1015.15
2023-05-24T01:20:19.690Z,1015.19
2023-05-24T01:21:19.600Z,1015.19
2023-05-24T01:22:19.576Z,1015.19
2023-05-24T01:23:19.556Z,1015.20
2023-05-24T01:24:19.559Z,1015.21
2023-05-24T01:25:19.549Z,1015.22
2023-05-24T01:26:19.535Z,1015.22
2023-05-24T01:27:19.541Z,1015.29
2023-05-24T01:28:19.539Z,1015.26
2023-05-24T01:29:19.511Z,1015.29
2023-05-24T01:30:19.480Z,1015.27
2023-05-24T01:31:19.539Z,1015.26
2023-05-24T01:32:19.456Z,1015.32
2023-05-24T01:33:19.439Z,1015.33
2023-05-24T01:34:19.469Z,1015.30
2023-05-24T01:35:19.423Z,1015.31
2023-05-24T01:36:19.413Z,1015.31
2023-05-24T01:37:19.420Z,1015.28
2023-05-24T01:38:19.385Z,1015.33
2023-05-24T01:39:19.382Z,1015.26
2023-05-24T01:40:19.418Z,1015.20
2023-05-24T01:41:19.353Z,1015.26
2023-05-24T01:42:19.348Z,1015.21
2023-05-24T01:43:19.361Z,1015.19
2023-05-24T01:44:19.324Z,1015.23
2023-05-24T01:45:19.317Z,1015.18
2023-05-24T01:46:19.370Z,1015.18
2023-05-24T01:47:19.306Z,1015.24
2023-05-24T01:48:19.572Z,1015.20
2023-05-24T01:49:19.286Z,1015.19
2023-05-24T01:50:19.276Z,1015.19
2023-05-24T01:51:19.265Z,1015.20
2023-05-24T01:52:19.262Z,1015.22
2023-05-24T01:53:19.224Z,1015.22
2023-05-24T01:54:19.215Z,1015.19
2023-05-24T01:55:19.215Z,1015.12
2023-05-24T01:56:19.277Z,1015.16
2023-05-24T01:57:19.193Z,1015.20
2023-05-24T01:58:19.179Z,1015.22
2023-05-24T01:59:19.185Z,1015.22
2023-05-24T02:00:19.186Z,1015.18
2023-05-24T02:01:19.209Z,1015.17
2023-05-24T02:02:19.292Z,1015.19
2023-05-24T02:03:19.165Z,1015.20
2023-05-24T02:04:19.133Z,1015.19
2023-05-24T02:05:19.109Z,1015.16
2023-05-24T02:06:19.111Z,1015.13
2023-05-24T02:07:19.100Z,1015.14
2023-05-24T02:08:19.089Z,1015.15
2023-05-24T02:09:19.062Z,1015.11
2023-05-24T02:10:19.063Z,1015.09
2023-05-24T02:11:19.046Z,1015.08
2023-05-24T02:12:19.046Z,1015.10
2023-05-24T02:13:19.010Z,1015.12
2023-05-24T02:14:18.990Z,1015.09
2023-05-24T02:15:19.017Z,1015.06
2023-05-24T02:16:19.016Z,1015.05
2023-05-24T02:17:18.963Z,1015.09
2023-05-24T02:18:18.946Z,1015.05
2023-05-24T02:19:18.957Z,1015.03
2023-05-24T02:20:18.966Z,1015.05
2023-05-24T02:21:18.942Z,1015.04
2023-05-24T02:22:18.920Z,1015.02
2023-05-24T02:23:18.909Z,1015.03
2023-05-24T02:24:18.910Z,1015.04
2023-05-24T02:25:18.889Z,1015.01
2023-05-24T02:26:18.876Z,1015.06
2023-05-24T02:27:18.863Z,1014.98
2023-05-24T02:28:18.841Z,1015.03
2023-05-24T02:29:18.834Z,1015.02
2023-05-24T02:30:18.835Z,1015.02
2023-05-24T02:31:18.917Z,1014.99
2023-05-24T02:32:18.810Z,1015.00
2023-05-24T02:33:18.807Z,1015.07
2023-05-24T02:34:18.810Z,1015.03
2023-05-24T02:35:18.782Z,1015.06
2023-05-24T02:36:18.800Z,1015.04
2023-05-24T02:37:18.765Z,1015.01
2023-05-24T02:38:18.750Z,1015.07
2023-05-24T02:39:18.750Z,1015.02
2023-05-24T02:40:18.740Z,1015.04
2023-05-24T02:41:18.711Z,1015.08
2023-05-24T02:42:18.725Z,1015.06
2023-05-24T02:43:18.697Z,1015.04
2023-05-24T02:44:18.667Z,1015.08
2023-05-24T02:45:18.669Z,1015.03
2023-05-24T02:46:18.707Z,1015.05
2023-05-24T02:47:18.714Z,1015.02
2023-05-24T02:48:18.641Z,1015.03
2023-05-24T02:49:18.624Z,1015.03
2023-05-24T02:50:18.609Z,1015.04
2023-05-24T02:51:18.599Z,1015.04
2023-05-24T02:52:18.597Z,1015.02
2023-05-24T02:53:18.588Z,1015.02
2023-05-24T02:54:18.576Z,1014.97
2023-05-24T02:55:18.574Z,1015.01
2023-05-24T02:56:18.557Z,1015.00
2023-05-24T02:57:18.520Z,1015.00
2023-05-24T02:58:18.532Z,1014.98
2023-05-24T02:59:18.503Z,1015.04
2023-05-24T03:00:18.530Z,1015.00
2023-05-24T03:01:18.534Z,1015.04
2023-05-24T03:02:18.481Z,1015.06
2023-05-24T03:03:18.529Z,1015.02
2023-05-24T03:04:18.456Z,1015.04
2023-05-24T03:05:18.457Z,1015.00
2023-05-24T03:06:18.424Z,1015.03
2023-05-24T03:07:18.415Z,1015.04
2023-05-24T03:08:18.422Z,1015.07
2023-05-24T03:09:18.402Z,1015.05
2023-05-24T03:10:18.400Z,1015.07
2023-05-24T03:11:18.394Z,1015.06
2023-05-24T03:12:18.380Z,1015.09
2023-05-24T03:13:18.363Z,1015.03
2023-05-24T03:14:18.357Z,1015.10
2023-05-24T03:15:18.338Z,1015.02
2023-05-24T03:16:18.438Z,1015.04
2023-05-24T03:17:18.319Z,1015.04
2023-05-24T03:18:18.306Z,1015.01
2023-05-24T03:19:18.336Z,1015.02
2023-05-24T03:20:18.318Z,1015.02
2023-05-24T03:21:18.326Z,1015.00
2023-05-24T03:22:18.247Z,1014.99
2023-05-24T03:23:18.250Z,1014.99
2023-05-24T03:24:18.247Z,1015.00
2023-05-24T03:25:18.258Z,1014.99
2023-05-24T03:26:18.208Z,1014.98
2023-05-24T03:27:18.198Z,1015.00
2023-05-24T03:28:18.184Z,1015.01
2023-05-24T03:29:18.186Z,1014.96
2023-05-24T03:30:18.162Z,1014.96
2023-05-24T03:31:18.201Z,1014.95
2023-05-24T03:32:18.144Z,1014.94
2023-05-24T03:33:18.131Z,1014.92
2023-05-24T03:34:18.175Z,1014.85
2023-05-24T03:35:18.152Z,1014.85
2023-05-24T03:36:18.112Z,1014.88
2023-05-24T03:37:18.097Z,1014.84
2023-05-24T03:38:18.091Z,1014.82
2023-05-24T03:39:18.061Z,1014.82
2023-05-24T03:40:18.073Z,1014.84
2023-05-24T03:41:18.059Z,1014.91
2023-05-24T03:42:18.051Z,1014.90
2023-05-24T03:43:18.030Z,1014.89
2023-05-24T03:44:18.024Z,1014.98
2023-05-24T03:45:27.078Z,1014.97
2023-05-24T03:46:19.059Z,1015.02
2023-05-24T03:47:17.981Z,1015.01
2023-05-24T03:48:17.988Z,1015.04
2023-05-24T03:49:17.968Z,1015.05
2023-05-24T03:50:17.946Z,1015.02
2023-05-24T03:51:17.968Z,1015.04
2023-05-24T03:52:17.943Z,1015.06
2023-05-24T03:53:17.916Z,1015.09
2023-05-24T03:54:17.955Z,1015.09
2023-05-24T03:55:17.906Z,1015.11
2023-05-24T03:56:17.895Z,1015.09
2023-05-24T03:57:17.880Z,1015.10
2023-05-24T03:58:17.868Z,1015.15
2023-05-24T03:59:17.845Z,1015.14
2023-05-24T04:00:17.847Z,1015.17
2023-05-24T04:01:32.180Z,1015.13
2023-05-24T04:02:18.815Z,1015.14
2023-05-24T04:03:17.881Z,1015.11
2023-05-24T04:04:17.900Z,1015.09
2023-05-24T04:05:17.801Z,1015.10
2023-05-24T04:06:17.785Z,1015.10
2023-05-24T04:07:17.795Z,1015.13
2023-05-24T04:08:17.740Z,1015.14
2023-05-24T04:09:17.735Z,1015.12
2023-05-24T04:10:17.768Z,1015.11
2023-05-24T04:11:17.724Z,1015.10
2023-05-24T04:12:17.722Z,1015.10
2023-05-24T04:13:17.685Z,1015.13
2023-05-24T04:14:17.716Z,1015.08
2023-05-24T04:15:17.682Z,1015.08
2023-05-24T04:16:17.667Z,1015.07
2023-05-24T04:17:17.743Z,1015.08
2023-05-24T04:18:17.768Z,1015.12
2023-05-24T04:19:17.618Z,1015.13
2023-05-24T04:20:17.669Z,1015.21
2023-05-24T04:21:17.594Z,1015.18
2023-05-24T04:22:17.627Z,1015.22
2023-05-24T04:23:17.613Z,1015.25
2023-05-24T04:24:17.587Z,1015.27
2023-05-24T04:25:17.596Z,1015.32
2023-05-24T04:26:17.607Z,1015.33
2023-05-24T04:27:17.557Z,1015.34
2023-05-24T04:28:17.540Z,1015.32
2023-05-24T04:29:17.513Z,1015.33
2023-05-24T04:30:17.502Z,1015.32
2023-05-24T04:31:17.527Z,1015.28
2023-05-24T04:32:17.478Z,1015.29
2023-05-24T04:33:17.471Z,1015.30
2023-05-24T04:34:17.470Z,1015.32
2023-05-24T04:35:17.451Z,1015.34
2023-05-24T04:36:17.453Z,1015.34
2023-05-24T04:37:17.517Z,1015.38
2023-05-24T04:38:17.695Z,1015.42
2023-05-24T04:39:17.426Z,1015.42
2023-05-24T04:40:17.411Z,1015.45
2023-05-24T04:41:17.400Z,1015.44
2023-05-24T04:42:17.386Z,1015.45
2023-05-24T04:43:17.361Z,1015.42
2023-05-24T04:44:17.352Z,1015.40
2023-05-24T04:45:17.344Z,1015.43
2023-05-24T04:46:17.370Z,1015.41
2023-05-24T04:47:17.326Z,1015.46
2023-05-24T04:48:17.324Z,1015.43
2023-05-24T04:49:17.312Z,1015.41
2023-05-24T04:50:17.304Z,1015.44
2023-05-24T04:51:17.292Z,1015.44
2023-05-24T04:52:17.277Z,1015.41
2023-05-24T04:53:17.266Z,1015.48
2023-05-24T04:54:17.274Z,1015.48
2023-05-24T04:55:17.268Z,1015.53
2023-05-24T04:56:17.231Z,1015.50
2023-05-24T04:57:17.217Z,1015.51
2023-05-24T04:58:17.224Z,1015.54
2023-05-24T04:59:17.204Z,1015.57
2023-05-24T05:00:17.186Z,1015.54
2023-05-24T05:01:17.193Z,1015.58
2023-05-24T05:02:17.193Z,1015.56
2023-05-24T05:03:17.230Z,1015.56
2023-05-24T05:04:17.171Z,1015.57
2023-05-24T05:05:17.154Z,1015.52
2023-05-24T05:06:17.142Z,1015.51
2023-05-24T05:07:17.125Z,1015.53
2023-05-24T05:08:17.129Z,1015.55
2023-05-24T05:09:17.080Z,1015.55
2023-05-24T05:10:17.090Z,1015.56
2023-05-24T05:11:17.091Z,1015.60
2023-05-24T05:12:17.105Z,1015.58
2023-05-24T05:13:17.051Z,1015.63
2023-05-24T05:14:17.032Z,1015.62
2023-05-24T05:15:17.062Z,1015.67
2023-05-24T05:16:17.071Z,1015.63
2023-05-24T05:17:16.996Z,1015.70
2023-05-24T05:18:17.032Z,1015.68
2023-05-24T05:19:17.008Z,1015.70
2023-05-24T05:20:17.043Z,1015.76
2023-05-24T05:21:16.968Z,1015.77
2023-05-24T05:22:16.983Z,1015.76
2023-05-24T05:23:16.938Z,1015.79
2023-05-24T05:24:16.951Z,1015.74
2023-05-24T05:25:16.923Z,1015.83
2023-05-24T05:26:16.897Z,1015.76
2023-05-24T05:27:16.900Z,1015.81
2023-05-24T05:28:16.886Z,1015.81
2023-05-24T05:29:16.889Z,1015.81
2023-05-24T05:30:16.857Z,1015.81
2023-05-24T05:31:16.831Z,1015.80
2023-05-24T05:32:16.831Z,1015.79
2023-05-24T05:33:16.885Z,1015.77
2023-05-24T05:34:16.827Z,1015.82
2023-05-24T05:35:16.835Z,1015.76
2023-05-24T05:36:16.790Z,1015.78
2023-05-24T05:37:16.769Z,1015.72
2023-05-24T05:38:16.798Z,1015.71
2023-05-24T05:39:16.768Z,1015.74
2023-05-24T05:40:16.747Z,1015.71
2023-05-24T05:41:16.744Z,1015.76
2023-05-24T05:42:16.769Z,1015.75
2023-05-24T05:43:16.752Z,1015.74
2023-05-24T05:44:16.729Z,1015.74
2023-05-24T05:45:16.727Z,1015.68
2023-05-24T05:46:16.741Z,1015.73
2023-05-24T05:47:16.675Z,1015.71
2023-05-24T05:48:16.676Z,1015.74
2023-05-24T05:49:16.662Z,1015.76
2023-05-24T05:50:16.634Z,1015.77
2023-05-24T05:51:16.637Z,1015.79
2023-05-24T05:52:16.658Z,1015.77
2023-05-24T05:53:16.625Z,1015.78
2023-05-24T05:54:16.614Z,1015.72
2023-05-24T05:55:16.585Z,1015.81
2023-05-24T05:56:16.621Z,1015.76
2023-05-24T05:57:16.602Z,1015.74
2023-05-24T05:58:16.570Z,1015.75
2023-05-24T05:59:16.705Z,1015.74
2023-05-24T06:00:16.528Z,1015.76
2023-05-24T06:01:16.511Z,1015.79
2023-05-24T06:02:16.683Z,1015.78
2023-05-24T06:03:16.737Z,1015.81
2023-05-24T06:04:16.517Z,1015.76
2023-05-24T06:05:16.461Z,1015.72
2023-05-24T06:06:16.501Z,1015.78
2023-05-24T06:07:16.456Z,1015.76
2023-05-24T06:08:16.466Z,1015.80
2023-05-24T06:09:16.438Z,1015.77
2023-05-24T06:10:16.457Z,1015.84
2023-05-24T06:11:16.447Z,1015.78
2023-05-24T06:12:16.453Z,1015.92
2023-05-24T06:13:16.400Z,1015.81
2023-05-24T06:14:16.358Z,1015.87
2023-05-24T06:15:16.407Z,1015.85
2023-05-24T06:16:16.432Z,1015.86
2023-05-24T06:17:16.363Z,1015.91
2023-05-24T06:18:16.344Z,1015.91
2023-05-24T06:19:16.343Z,1015.89
2023-05-24T06:20:16.381Z,1015.98
2023-05-24T06:21:16.351Z,1015.95
2023-05-24T06:22:16.325Z,1015.88
2023-05-24T06:23:16.284Z,1015.85
2023-05-24T06:24:16.334Z,1015.84
2023-05-24T06:25:16.404Z,1015.67
2023-05-24T06:26:16.256Z,1015.68
2023-05-24T06:27:16.575Z,1015.64
2023-05-24T06:28:16.225Z,1015.67
2023-05-24T06:29:16.220Z,1015.69
2023-05-24T06:30:16.239Z,1015.66
2023-05-24T06:31:16.260Z,1015.65
2023-05-24T06:32:16.256Z,1015.59
2023-05-24T06:33:16.172Z,1015.56
2023-05-24T06:34:16.151Z,1015.54
2023-05-24T06:35:16.165Z,1015.49
2023-05-24T06:36:16.152Z,1015.44
2023-05-24T06:37:16.120Z,1015.44
2023-05-24T06:38:16.136Z,1015.41
2023-05-24T06:39:16.157Z,1015.42
2023-05-24T06:40:16.117Z,1015.49
2023-05-24T06:41:16.105Z,1015.44
2023-05-24T06:42:16.089Z,1015.41
2023-05-24T06:43:16.059Z,1015.44
2023-05-24T06:44:16.035Z,1015.46
2023-05-24T06:45:16.054Z,1015.45
2023-05-24T06:46:16.022Z,1015.36
2023-05-24T06:47:16.115Z,1015.38
2023-05-24T06:48:16.099Z,1015.31
2023-05-24T06:49:16.030Z,1015.32
2023-05-24T06:50:15.996Z,1015.29
2023-05-24T06:51:15.989Z,1015.36
2023-05-24T06:52:16.030Z,1015.39
2023-05-24T06:53:16.005Z,1015.38
2023-05-24T06:54:15.956Z,1015.44
2023-05-24T06:55:15.935Z,1015.43
2023-05-24T06:56:15.902Z,1015.50
2023-05-24T06:57:15.907Z,1015.45
2023-05-24T06:58:15.926Z,1015.52
2023-05-24T06:59:15.895Z,1015.57
2023-05-24T07:00:15.895Z,1015.55
2023-05-24T07:01:15.888Z,1015.54
2023-05-24T07:02:16.551Z,1015.67
2023-05-24T07:03:15.854Z,1015.62
2023-05-24T07:04:16.105Z,1015.62
2023-05-24T07:05:15.839Z,1015.70
2023-05-24T07:06:15.802Z,1015.71
2023-05-24T07:07:15.796Z,1015.73
2023-05-24T07:08:15.803Z,1015.74
2023-05-24T07:09:15.804Z,1015.68
2023-05-24T07:10:16.572Z,1015.74
2023-05-24T07:11:15.797Z,1015.68
2023-05-24T07:12:15.792Z,1015.76
2023-05-24T07:13:15.752Z,1015.78
2023-05-24T07:14:15.743Z,1015.79
2023-05-24T07:15:15.709Z,1015.87
2023-05-24T07:16:15.723Z,1015.86
2023-05-24T07:17:15.737Z,1015.85
2023-05-24T07:18:15.680Z,1015.89
2023-05-24T07:19:15.892Z,1015.87
2023-05-24T07:20:15.679Z,1015.89
2023-05-24T07:21:15.646Z,1015.79
2023-05-24T07:22:15.651Z,1015.81
2023-05-24T07:23:15.632Z,1015.92
2023-05-24T07:24:16.504Z,1015.85
2023-05-24T07:25:15.610Z,1015.86
2023-05-24T07:26:15.588Z,1015.97
2023-05-24T07:27:15.600Z,1015.91
2023-05-24T07:28:15.627Z,1015.92
2023-05-24T07:29:15.549Z,1015.87
2023-05-24T07:30:27.712Z,1015.84
2023-05-24T07:31:16.534Z,1015.84
2023-05-24T07:32:15.615Z,1015.85
2023-05-24T07:33:15.553Z,1015.83
2023-05-24T07:34:15.540Z,1015.85
2023-05-24T07:35:15.595Z,1015.92
2023-05-24T07:36:15.513Z,1015.91
2023-05-24T07:37:15.483Z,1015.99
2023-05-24T07:38:15.460Z,1015.95
2023-05-24T07:39:15.447Z,1015.98
2023-05-24T07:40:15.442Z,1015.96
2023-05-24T07:41:15.416Z,1015.93
2023-05-24T07:42:15.424Z,1015.94
2023-05-24T07:43:15.417Z,1015.99
2023-05-24T07:44:15.404Z,1015.91
2023-05-24T07:45:15.373Z,1015.92
2023-05-24T07:46:15.451Z,1015.96
2023-05-24T07:47:15.371Z,1015.91
2023-05-24T07:48:15.403Z,1015.99
2023-05-24T07:49:15.347Z,1015.95
2023-05-24T07:50:15.364Z,1016.01
2023-05-24T07:51:15.378Z,1015.96
2023-05-24T07:52:15.321Z,1016.05
2023-05-24T07:53:15.281Z,1015.94
2023-05-24T07:54:15.270Z,1015.95
2023-05-24T07:55:15.270Z,1016.04
2023-05-24T07:56:15.281Z,1015.98
2023-05-24T07:57:15.237Z,1015.97
2023-05-24T07:58:15.221Z,1015.94
2023-05-24T07:59:15.226Z,1015.92
2023-05-24T08:00:15.284Z,1015.87
2023-05-24T08:01:15.219Z,1015.90
2023-05-24T08:02:15.251Z,1015.84
2023-05-24T08:03:15.242Z,1015.85
2023-05-24T08:04:15.155Z,1015.81
2023-05-24T08:05:15.200Z,1015.81
2023-05-24T08:06:15.159Z,1015.78
2023-05-24T08:07:15.280Z,1015.82
2023-05-24T08:08:15.124Z,1015.78
2023-05-24T08:09:15.143Z,1015.78
2023-05-24T08:10:15.146Z,1015.82
2023-05-24T08:11:15.101Z,1015.77
2023-05-24T08:12:17.166Z,1015.85
2023-05-24T08:13:15.070Z,1015.81
2023-05-24T08:14:15.058Z,1015.78
2023-05-24T08:15:15.066Z,1015.83
2023-05-24T08:16:15.068Z,1015.82
2023-05-24T08:17:15.013Z,1015.84
2023-05-24T08:18:15.027Z,1015.77
2023-05-24T08:19:15.013Z,1015.75
2023-05-24T08:20:15.080Z,1015.74
2023-05-24T08:21:15.005Z,1015.80
2023-05-24T08:22:14.969Z,1015.79
2023-05-24T08:23:14.971Z,1015.89
2023-05-24T08:24:14.928Z,1015.80
2023-05-24T08:25:14.937Z,1015.89
2023-05-24T08:26:15.115Z,1015.88
2023-05-24T08:27:14.906Z,1015.84
2023-05-24T08:28:14.904Z,1015.82
2023-05-24T08:29:14.914Z,1015.74
2023-05-24T08:30:14.878Z,1015.80
2023-05-24T08:31:14.904Z,1015.80
2023-05-24T08:32:14.897Z,1015.79
2023-05-24T08:33:14.917Z,1015.79
2023-05-24T08:34:14.848Z,1015.84
2023-05-24T08:36:14.825Z,1015.85
2023-05-24T08:37:16.259Z,1015.87
2023-05-24T08:38:14.799Z,1015.93
2023-05-24T08:39:14.823Z,1015.86
2023-05-24T08:40:14.815Z,1015.84
2023-05-24T08:41:14.789Z,1015.78
2023-05-24T08:42:14.745Z,1015.82
2023-05-24T08:43:14.724Z,1015.86
2023-05-24T08:44:14.726Z,1015.82
2023-05-24T08:45:14.739Z,1015.86
2023-05-24T08:46:14.744Z,1015.84
2023-05-24T08:47:14.696Z,1015.87
2023-05-24T08:48:14.763Z,1015.86
2023-05-24T08:49:14.668Z,1015.90
2023-05-24T08:50:15.188Z,1015.84
2023-05-24T08:51:14.630Z,1015.85
2023-05-24T08:52:14.629Z,1015.85
2023-05-24T08:53:14.680Z,1015.83
2023-05-24T08:54:14.617Z,1015.79
2023-05-24T08:55:14.645Z,1015.85
2023-05-24T08:56:14.600Z,1015.86
2023-05-24T08:57:14.575Z,1015.86
2023-05-24T08:58:14.607Z,1015.89
2023-05-24T08:59:14.569Z,1015.88
2023-05-24T09:00:14.593Z,1015.82
2023-05-24T09:01:14.568Z,1015.86
2023-05-24T09:02:14.621Z,1015.81
2023-05-24T09:03:14.669Z,1015.82
2023-05-24T09:04:14.529Z,1015.78
2023-05-24T09:05:14.602Z,1015.82
2023-05-24T09:06:14.479Z,1015.72
2023-05-24T09:07:14.457Z,1015.82
2023-05-24T09:08:14.464Z,1015.76
2023-05-24T09:09:14.457Z,1015.78
2023-05-24T09:10:14.626Z,1015.77
2023-05-24T09:11:14.497Z,1015.76
2023-05-24T09:12:19.076Z,1015.69
2023-05-24T09:13:15.441Z,1015.69
2023-05-24T09:14:14.390Z,1015.64
2023-05-24T09:15:14.391Z,1015.62
2023-05-24T09:16:14.416Z,1015.63
2023-05-24T09:17:14.371Z,1015.56
2023-05-24T09:18:14.442Z,1015.69
2023-05-24T09:19:14.335Z,1015.58
2023-05-24T09:20:14.419Z,1015.58
2023-05-24T09:21:14.333Z,1015.63
2023-05-24T09:22:14.350Z,1015.61
2023-05-24T09:23:15.097Z,1015.59
2023-05-24T09:24:14.272Z,1015.59
2023-05-24T09:25:14.289Z,1015.60
2023-05-24T09:26:14.278Z,1015.64
2023-05-24T09:27:14.422Z,1015.65
2023-05-24T09:28:14.589Z,1015.61
2023-05-24T09:29:14.215Z,1015.62
2023-05-24T09:30:14.271Z,1015.60
2023-05-24T09:31:14.302Z,1015.58
2023-05-24T09:32:14.204Z,1015.62
2023-05-24T09:33:14.280Z,1015.56
2023-05-24T09:34:14.161Z,1015.57
2023-05-24T09:35:14.139Z,1015.57
2023-05-24T09:36:14.164Z,1015.49
2023-05-24T09:37:15.074Z,1015.53
2023-05-24T09:38:14.114Z,1015.54
2023-05-24T09:39:14.127Z,1015.52
2023-05-24T09:40:14.088Z,1015.55
2023-05-24T09:41:14.108Z,1015.51
2023-05-24T09:42:14.092Z,1015.49
2023-05-24T09:43:14.120Z,1015.57
2023-05-24T09:44:14.124Z,1015.57
2023-05-24T09:45:14.018Z,1015.56
2023-05-24T09:46:14.046Z,1015.60
2023-05-24T09:47:14.247Z,1015.65
2023-05-24T09:48:14.030Z,1015.51
2023-05-24T09:49:13.989Z,1015.57
2023-05-24T09:50:14.086Z,1015.71
2023-05-24T09:51:14.010Z,1015.63
2023-05-24T09:52:13.966Z,1015.68
2023-05-24T09:53:14.005Z,1015.65
2023-05-24T09:54:13.969Z,1015.59
2023-05-24T09:55:14.008Z,1015.58
2023-05-24T09:56:13.978Z,1015.61
2023-05-24T09:57:13.915Z,1015.65
2023-05-24T09:58:13.937Z,1015.56
2023-05-24T09:59:13.905Z,1015.56
2023-05-24T10:00:13.951Z,1015.53
2023-05-24T10:01:13.923Z,1015.50
2023-05-24T10:02:13.860Z,1015.51
2023-05-24T10:03:14.037Z,1015.53
2023-05-24T10:04:13.956Z,1015.54
2023-05-24T10:05:13.875Z,1015.43
2023-05-24T10:06:13.830Z,1015.47
2023-05-24T10:07:13.789Z,1015.55
2023-05-24T10:08:13.772Z,1015.42
2023-05-24T10:09:13.776Z,1015.40
2023-05-24T10:10:13.761Z,1015.40
2023-05-24T10:11:13.760Z,1015.41
2023-05-24T10:12:13.736Z,1015.39
2023-05-24T10:13:13.732Z,1015.45
2023-05-24T10:14:13.741Z,1015.47
2023-05-24T10:15:13.868Z,1015.52
2023-05-24T10:16:13.775Z,1015.41
2023-05-24T10:17:13.797Z,1015.44
2023-05-24T10:18:14.490Z,1015.49
2023-05-24T10:19:13.672Z,1015.37
2023-05-24T10:20:13.704Z,1015.41
2023-05-24T10:21:13.687Z,1015.34
2023-05-24T10:22:13.639Z,1015.33
2023-05-24T10:23:13.604Z,1015.31
2023-05-24T10:24:13.697Z,1015.32
2023-05-24T10:25:13.627Z,1015.27
2023-05-24T10:26:13.602Z,1015.28
2023-05-24T10:27:13.566Z,1015.29
2023-05-24T10:28:13.611Z,1015.36
2023-05-24T10:29:13.565Z,1015.31
2023-05-24T10:30:14.166Z,1015.30
2023-05-24T10:31:13.599Z,1015.28
2023-05-24T10:32:13.513Z,1015.31
2023-05-24T10:33:13.605Z,1015.35
2023-05-24T10:34:13.523Z,1015.40
2023-05-24T10:35:13.483Z,1015.35
2023-05-24T10:36:13.480Z,1015.41
2023-05-24T10:37:13.459Z,1015.45
2023-05-24T10:38:13.487Z,1015.36
2023-05-24T10:39:13.463Z,1015.31
2023-05-24T10:40:13.460Z,1015.22
2023-05-24T10:41:13.485Z,1015.31
2023-05-24T10:42:13.412Z,1015.22
2023-05-24T10:43:13.404Z,1015.28
2023-05-24T10:44:13.401Z,1015.27
2023-05-24T10:45:13.383Z,1015.24
2023-05-24T10:46:13.394Z,1015.15
2023-05-24T10:47:13.472Z,1015.33
2023-05-24T10:48:13.426Z,1015.32
2023-05-24T10:49:13.339Z,1015.29
2023-05-24T10:50:13.330Z,1015.30
2023-05-24T10:51:13.315Z,1015.30
2023-05-24T10:52:13.326Z,1015.33
2023-05-24T10:53:13.287Z,1015.33
2023-05-24T10:54:13.261Z,1015.34
2023-05-24T10:55:13.274Z,1015.27
2023-05-24T10:56:13.249Z,1015.31
2023-05-24T10:57:13.260Z,1015.35
2023-05-24T10:58:13.235Z,1015.31
2023-05-24T10:59:13.610Z,1015.43
2023-05-24T11:00:15.696Z,1015.34
2023-05-24T11:01:14.251Z,1015.31
2023-05-24T11:02:13.434Z,1015.27
2023-05-24T11:03:13.292Z,1015.23
2023-05-24T11:04:13.187Z,1015.23
2023-05-24T11:05:13.160Z,1015.21
2023-05-24T11:06:13.184Z,1015.21
2023-05-24T11:07:13.145Z,1015.25
2023-05-24T11:08:13.138Z,1015.21
2023-05-24T11:09:13.135Z,1015.20
2023-05-24T11:10:13.102Z,1015.20
2023-05-24T11:11:23.220Z,1015.20
2023-05-24T11:12:14.120Z,1015.24
2023-05-24T11:13:13.052Z,1015.28
2023-05-24T11:14:13.042Z,1015.31
2023-05-24T11:15:13.047Z,1015.27
2023-05-24T11:16:13.144Z,1015.26
2023-05-24T11:17:13.023Z,1015.28
2023-05-24T11:18:13.069Z,1015.27
2023-05-24T11:19:13.037Z,1015.27
2023-05-24T11:20:13.048Z,1015.21
2023-05-24T11:21:12.986Z,1015.24
2023-05-24T11:22:12.996Z,1015.27
2023-05-24T11:23:13.096Z,1015.14
2023-05-24T11:24:12.955Z,1015.14
2023-05-24T11:25:12.933Z,1015.27
2023-05-24T11:26:12.945Z,1015.22
2023-05-24T11:27:12.924Z,1015.25
2023-05-24T11:28:12.980Z,1015.16
2023-05-24T11:29:12.946Z,1015.09
2023-05-24T11:30:12.863Z,1015.18
2023-05-24T11:31:12.877Z,1015.11
2023-05-24T11:32:12.995Z,1015.08
2023-05-24T11:33:12.884Z,1015.10
2023-05-24T11:34:12.853Z,1015.14
2023-05-24T11:35:12.876Z,1015.08
2023-05-24T11:36:12.817Z,1015.09
2023-05-24T11:37:14.557Z,1015.06
2023-05-24T11:38:12.795Z,1015.04
2023-05-24T11:39:12.781Z,1015.03
2023-05-24T11:40:12.777Z,1015.01
2023-05-24T11:41:12.749Z,1014.95
2023-05-24T11:42:12.757Z,1014.94
2023-05-24T11:43:14.552Z,1015.01
2023-05-24T11:44:12.718Z,1014.97
2023-05-24T11:45:12.736Z,1015.08
2023-05-24T11:46:12.752Z,1014.90
2023-05-24T11:47:12.691Z,1014.90
2023-05-24T11:48:12.698Z,1014.87
2023-05-24T11:49:12.648Z,1014.95
2023-05-24T11:50:12.664Z,1014.95
2023-05-24T11:51:12.697Z,1014.92
2023-05-24T11:52:12.768Z,1014.87
2023-05-24T11:53:12.618Z,1014.90
2023-05-24T11:54:12.637Z,1014.90
2023-05-24T11:55:14.926Z,1014.86
2023-05-24T11:56:12.605Z,1014.88
2023-05-24T11:57:12.591Z,1014.88
2023-05-24T11:58:12.601Z,1014.88
2023-05-24T11:59:12.567Z,1014.92
2023-05-24T12:00:12.592Z,1014.85
2023-05-24T12:01:12.523Z,1014.87
2023-05-24T12:02:12.604Z,1014.89
2023-05-24T12:03:12.641Z,1014.83
2023-05-24T12:04:12.879Z,1014.92
2023-05-24T12:05:12.516Z,1014.89
2023-05-24T12:06:12.488Z,1014.90